Guarenas, Venezuela
Current Conditions -  °F | °C
As of 8:00 PM on Monday 24 Nov 2014 (Local Time) from SVMI Reporting Station
Broken Clouds Broken Clouds  
Wind Chill: 81°   Ceiling: 1600
Heat Index: 86°   Visibility: 6mi
Dew Point: 75°   Wind: 5mph
Humidity: 84%   Direction: 70°ENE
Pressure: 29.94"   Gusts: NA
Location:  10.47°N, 66.62°W
Report Text: SVMI 250000Z 07004KT 9999 BKN016 27/24 Q1014 NOSIG
Loading
Personal Weather Stations






























Interactive Weather Map New forecast layout! Learn more

10-Day Weather Forecast

Advertisements
Track Severe Weather on mobile